Time;durP1;ratioP1;P1;durP2;ratioP2;P2;SDS_P1;SDS_P2;PMS_P1;PMS_P2;Temp;Humidity;BMP_temperature;BMP_pressure;BME280_temperature;BME280_humidity;BME280_pressure;Samples;Min_cycle;Max_cycle;Signal;HPM_P1;HPM_P2
2024/03/17 00:01:41;;;;;;;0.20;0.00;;;;;;;;;;5024566;28;20041;-79
2024/03/17 00:04:07;;;;;;;0.30;0.10;;;;;;;;;;5020698;28;20041;-80
2024/03/17 00:06:33;;;;;;;0.20;0.00;;;;;;;;;;5014958;28;20077;-80
2024/03/17 00:09:06;;;;;;;0.20;0.10;;;;;;;;;;5022382;28;20044;-79
2024/03/17 00:11:32;;;;;;;0.20;0.10;;;;;;;;;;5054223;28;20029;-79
2024/03/17 00:13:58;;;;;;;0.20;0.10;;;;;;;;;;5040766;28;20045;-81
2024/03/17 00:16:24;;;;;;;0.20;0.00;;;;;;;;;;5052408;28;20056;-78
2024/03/17 00:18:50;;;;;;;0.20;0.00;;;;;;;;;;5025549;28;20033;-78
2024/03/17 00:21:16;;;;;;;0.20;0.10;;;;;;;;;;5032650;28;20041;-78
2024/03/17 00:23:42;;;;;;;0.40;0.28;;;;;;;;;;5024846;28;20105;-78
2024/03/17 00:26:08;;;;;;;0.20;0.10;;;;;;;;;;5042142;28;20041;-78
2024/03/17 00:28:34;;;;;;;0.28;0.20;;;;;;;;;;5056601;28;20047;-79
2024/03/17 00:31:00;;;;;;;0.20;0.10;;;;;;;;;;5027314;28;20059;-79
2024/03/17 00:33:26;;;;;;;0.20;0.10;;;;;;;;;;5041346;28;20033;-79
2024/03/17 00:35:52;;;;;;;0.20;0.00;;;;;;;;;;5059382;28;20060;-79
2024/03/17 00:38:18;;;;;;;0.20;0.00;;;;;;;;;;5027270;28;22351;-79
2024/03/17 00:40:48;;;;;;;0.20;0.10;;;;;;;;;;5052989;28;20033;-78
2024/03/17 00:43:14;;;;;;;0.40;0.40;;;;;;;;;;5059950;28;20097;-79
2024/03/17 00:45:41;;;;;;;0.20;0.00;;;;;;;;;;5053447;28;20037;-78
2024/03/17 00:48:07;;;;;;;0.20;0.10;;;;;;;;;;5024799;28;20045;-79
2024/03/17 00:50:33;;;;;;;0.20;0.10;;;;;;;;;;5042996;28;20042;-78
2024/03/17 00:53:00;;;;;;;0.47;0.47;;;;;;;;;;5060857;28;20040;-78
2024/03/17 00:55:26;;;;;;;0.43;0.43;;;;;;;;;;5057403;28;20063;-78
2024/03/17 00:57:52;;;;;;;0.20;0.20;;;;;;;;;;5055210;28;20041;-79
2024/03/17 01:00:18;;;;;;;0.20;0.05;;;;;;;;;;5019711;28;20601;-79
2024/03/17 01:02:44;;;;;;;0.20;0.10;;;;;;;;;;5053281;28;20037;-79
2024/03/17 01:05:10;;;;;;;0.20;0.00;;;;;;;;;;5020882;28;20041;-79
2024/03/17 01:07:36;;;;;;;0.20;0.10;;;;;;;;;;5036777;28;20033;-79
2024/03/17 01:10:02;;;;;;;0.20;0.10;;;;;;;;;;5060134;28;20040;-79
2024/03/17 01:12:29;;;;;;;0.22;0.20;;;;;;;;;;5061997;28;20036;-79
2024/03/17 01:14:55;;;;;;;0.20;0.10;;;;;;;;;;5060322;28;20061;-79
2024/03/17 01:17:21;;;;;;;0.20;0.10;;;;;;;;;;5056943;28;20036;-79
2024/03/17 01:19:47;;;;;;;0.20;0.10;;;;;;;;;;5058142;28;20041;-79
2024/03/17 01:22:13;;;;;;;0.20;0.10;;;;;;;;;;5037675;28;20044;-79
2024/03/17 01:24:45;;;;;;;0.20;0.00;;;;;;;;;;5056431;28;20070;-79
2024/03/17 01:27:14;;;;;;;0.20;0.03;;;;;;;;;;5059597;28;20067;-79
2024/03/17 01:29:40;;;;;;;0.20;0.00;;;;;;;;;;5064932;28;20431;-79
2024/03/17 01:32:06;;;;;;;0.20;0.10;;;;;;;;;;5054448;28;20041;-79
2024/03/17 01:34:32;;;;;;;0.20;0.10;;;;;;;;;;5053481;28;20040;-79
2024/03/17 01:36:58;;;;;;;0.20;0.10;;;;;;;;;;5017442;28;20033;-79
2024/03/17 01:39:25;;;;;;;0.20;0.10;;;;;;;;;;5053676;28;20060;-78
2024/03/17 01:41:51;;;;;;;0.20;0.10;;;;;;;;;;5055301;28;20048;-78
2024/03/17 01:44:24;;;;;;;0.28;0.15;;;;;;;;;;5026201;28;20041;-78
2024/03/17 01:46:51;;;;;;;0.20;0.10;;;;;;;;;;5058997;28;20045;-78
2024/03/17 01:49:17;;;;;;;0.20;0.10;;;;;;;;;;5042748;28;20041;-78
2024/03/17 01:51:45;;;;;;;0.20;0.10;;;;;;;;;;5065471;28;20455;-79
2024/03/17 01:54:12;;;;;;;0.20;0.10;;;;;;;;;;5055721;28;20067;-79
2024/03/17 01:56:39;;;;;;;0.20;0.03;;;;;;;;;;5056586;28;20045;-79
2024/03/17 01:59:06;;;;;;;0.20;0.00;;;;;;;;;;5026859;28;20052;-79
2024/03/17 02:01:32;;;;;;;0.20;0.00;;;;;;;;;;5020533;28;20045;-79
2024/03/17 02:03:59;;;;;;;0.20;0.10;;;;;;;;;;5033908;28;20063;-78
2024/03/17 02:06:25;;;;;;;0.20;0.10;;;;;;;;;;5020601;28;20045;-79
2024/03/17 02:08:52;;;;;;;0.20;0.10;;;;;;;;;;5036901;28;20041;-79
2024/03/17 02:11:32;;;;;;;0.20;0.10;;;;;;;;;;5024753;28;20063;-79
2024/03/17 02:13:58;;;;;;;0.20;0.10;;;;;;;;;;5033486;28;20505;-79
2024/03/17 02:16:24;;;;;;;0.20;0.00;;;;;;;;;;5054757;28;20113;-79
2024/03/17 02:18:57;;;;;;;0.20;0.10;;;;;;;;;;5058849;28;20044;-79
2024/03/17 02:21:24;;;;;;;0.20;0.03;;;;;;;;;;5047350;28;20037;-79
2024/03/17 02:23:50;;;;;;;0.20;0.00;;;;;;;;;;5055365;28;20352;-79
2024/03/17 02:26:19;;;;;;;0.20;0.00;;;;;;;;;;5056331;28;20129;-79
2024/03/17 02:28:46;;;;;;;0.30;0.20;;;;;;;;;;5058690;28;20033;-78
2024/03/17 02:31:13;;;;;;;0.20;0.10;;;;;;;;;;5069109;28;20194;-79
2024/03/17 02:33:39;;;;;;;0.20;0.00;;;;;;;;;;5064832;28;20021;-78
2024/03/17 02:36:12;;;;;;;0.20;0.10;;;;;;;;;;5060406;28;20033;-79
2024/03/17 02:41:28;;;;;;;0.30;0.30;;;;;;;;;;5061831;28;20041;-79
2024/03/17 02:43:54;;;;;;;0.20;0.10;;;;;;;;;;5024650;28;20044;-79
2024/03/17 02:46:20;;;;;;;0.22;0.22;;;;;;;;;;5027352;28;20159;-79
2024/03/17 02:48:48;;;;;;;0.20;0.10;;;;;;;;;;5055378;28;20730;-80
2024/03/17 02:51:15;;;;;;;0.20;0.10;;;;;;;;;;5038234;28;20064;-79
2024/03/17 02:53:42;;;;;;;0.20;0.10;;;;;;;;;;5054262;28;20033;-79
2024/03/17 02:56:08;;;;;;;0.20;0.10;;;;;;;;;;5061254;28;20037;-79
2024/03/17 02:58:35;;;;;;;0.40;0.40;;;;;;;;;;5062741;28;20033;-79
2024/03/17 03:01:01;;;;;;;0.20;0.00;;;;;;;;;;5063978;28;20033;-79
2024/03/17 03:03:27;;;;;;;0.20;0.00;;;;;;;;;;5051969;28;20091;-79
2024/03/17 03:05:56;;;;;;;0.20;0.10;;;;;;;;;;5059457;28;20040;-79
2024/03/17 03:08:23;;;;;;;0.25;0.15;;;;;;;;;;5025217;28;20087;-79
2024/03/17 03:10:49;;;;;;;0.20;0.00;;;;;;;;;;5065572;28;20084;-79
2024/03/17 03:13:15;;;;;;;0.20;0.10;;;;;;;;;;5032464;28;20509;-79
2024/03/17 03:15:41;;;;;;;0.20;0.00;;;;;;;;;;5045049;28;20051;-79
2024/03/17 03:18:07;;;;;;;0.20;0.10;;;;;;;;;;5056695;28;20045;-80
2024/03/17 03:20:33;;;;;;;0.20;0.00;;;;;;;;;;5039650;28;20037;-81
2024/03/17 03:22:59;;;;;;;0.20;0.05;;;;;;;;;;5062718;28;20009;-80
2024/03/17 03:25:25;;;;;;;0.20;0.10;;;;;;;;;;5067727;28;20041;-80
2024/03/17 03:27:51;;;;;;;0.20;0.00;;;;;;;;;;5068868;28;20096;-80
2024/03/17 03:30:20;;;;;;;0.20;0.10;;;;;;;;;;5048099;28;20080;-80
2024/03/17 03:32:47;;;;;;;0.20;0.10;;;;;;;;;;5057090;28;20048;-80
2024/03/17 03:35:14;;;;;;;0.20;0.10;;;;;;;;;;5064027;28;20037;-80
2024/03/17 03:37:41;;;;;;;0.20;0.00;;;;;;;;;;5066297;28;20048;-80
2024/03/17 03:40:17;;;;;;;0.30;0.28;;;;;;;;;;5045353;28;20044;-80
2024/03/17 03:42:43;;;;;;;0.20;0.10;;;;;;;;;;5057028;28;20691;-80
2024/03/17 03:45:13;;;;;;;0.20;0.10;;;;;;;;;;5054172;28;20040;-78
2024/03/17 03:47:42;;;;;;;0.20;0.10;;;;;;;;;;5061369;28;20048;-78
2024/03/17 03:50:11;;;;;;;0.20;0.10;;;;;;;;;;5057905;28;20040;-78
2024/03/17 03:52:38;;;;;;;0.20;0.10;;;;;;;;;;5028433;28;20138;-78
2024/03/17 03:55:10;;;;;;;0.20;0.10;;;;;;;;;;5057296;28;20033;-78
2024/03/17 03:57:36;;;;;;;0.20;0.10;;;;;;;;;;5060025;28;20173;-78
2024/03/17 04:00:12;;;;;;;0.20;0.10;;;;;;;;;;5044820;28;20461;-78
2024/03/17 04:02:38;;;;;;;0.20;0.08;;;;;;;;;;5058546;28;20041;-78
2024/03/17 04:05:04;;;;;;;0.20;0.00;;;;;;;;;;5061189;28;20127;-78
2024/03/17 04:07:30;;;;;;;0.20;0.00;;;;;;;;;;5063139;28;20044;-78
2024/03/17 04:09:56;;;;;;;0.20;0.10;;;;;;;;;;5031445;28;21106;-78
2024/03/17 04:12:22;;;;;;;0.20;0.00;;;;;;;;;;5055333;28;20033;-78
2024/03/17 04:14:53;;;;;;;0.20;0.08;;;;;;;;;;5026134;28;20029;-78
2024/03/17 04:17:23;;;;;;;0.20;0.10;;;;;;;;;;5036345;28;20101;-78
2024/03/17 04:19:49;;;;;;;0.20;0.10;;;;;;;;;;5041241;28;20794;-78
2024/03/17 04:22:18;;;;;;;0.20;0.00;;;;;;;;;;5057797;28;20044;-78
2024/03/17 04:24:45;;;;;;;0.20;0.10;;;;;;;;;;5027864;28;20095;-78
2024/03/17 04:27:11;;;;;;;0.20;0.10;;;;;;;;;;5062452;28;20041;-78
2024/03/17 04:29:37;;;;;;;0.20;0.10;;;;;;;;;;5045573;28;20032;-78
2024/03/17 04:32:04;;;;;;;0.43;0.38;;;;;;;;;;5066027;28;20097;-78
2024/03/17 04:34:31;;;;;;;0.20;0.10;;;;;;;;;;5062615;28;20095;-79
2024/03/17 04:36:57;;;;;;;0.20;0.00;;;;;;;;;;5057204;28;20243;-79
2024/03/17 04:39:23;;;;;;;0.20;0.10;;;;;;;;;;5046430;28;20052;-79
2024/03/17 04:41:49;;;;;;;0.20;0.10;;;;;;;;;;5063016;28;20052;-79
2024/03/17 04:44:16;;;;;;;0.20;0.10;;;;;;;;;;5043331;28;20765;-79
2024/03/17 04:46:42;;;;;;;0.20;0.00;;;;;;;;;;5060921;28;20043;-79
2024/03/17 04:49:08;;;;;;;0.20;0.03;;;;;;;;;;5057574;28;20028;-79
2024/03/17 04:51:34;;;;;;;0.20;0.10;;;;;;;;;;5030917;28;20037;-79
2024/03/17 04:54:03;;;;;;;0.20;0.10;;;;;;;;;;5027075;28;20063;-79
2024/03/17 04:56:29;;;;;;;0.20;0.10;;;;;;;;;;5047087;28;20045;-79
2024/03/17 04:58:55;;;;;;;0.20;0.10;;;;;;;;;;5028021;28;20040;-79
2024/03/17 05:01:21;;;;;;;0.20;0.10;;;;;;;;;;5059547;28;20045;-79
2024/03/17 05:03:47;;;;;;;0.20;0.10;;;;;;;;;;5030904;28;20104;-79
2024/03/17 05:06:14;;;;;;;0.20;0.10;;;;;;;;;;5058521;28;20037;-79
2024/03/17 05:08:40;;;;;;;0.20;0.00;;;;;;;;;;5040275;28;20049;-80
2024/03/17 05:11:09;;;;;;;0.20;0.08;;;;;;;;;;5044325;28;20029;-79
2024/03/17 05:13:38;;;;;;;0.20;0.00;;;;;;;;;;5026794;28;20070;-80
2024/03/17 05:16:04;;;;;;;0.55;0.20;;;;;;;;;;5023064;28;20098;-79
2024/03/17 05:18:32;;;;;;;0.20;0.20;;;;;;;;;;5026734;28;20034;-80
2024/03/17 05:20:59;;;;;;;0.20;0.10;;;;;;;;;;5023496;28;20128;-81
2024/03/17 05:23:28;;;;;;;0.20;0.10;;;;;;;;;;5015680;28;20441;-80
2024/03/17 05:25:55;;;;;;;0.20;0.10;;;;;;;;;;5014111;28;20048;-79
2024/03/17 05:28:21;;;;;;;0.20;0.00;;;;;;;;;;5027534;28;20118;-80
2024/03/17 05:30:50;;;;;;;0.20;0.00;;;;;;;;;;5011614;28;20037;-79
2024/03/17 05:33:21;;;;;;;0.20;0.00;;;;;;;;;;5025743;28;20397;-80
2024/03/17 05:35:54;;;;;;;0.20;0.10;;;;;;;;;;5008986;28;20047;-81
2024/03/17 05:38:21;;;;;;;0.20;0.03;;;;;;;;;;5012730;28;20047;-80
2024/03/17 05:41:01;;;;;;;0.20;0.13;;;;;;;;;;5010795;28;20037;-80
2024/03/17 05:43:27;;;;;;;0.20;0.10;;;;;;;;;;5013820;28;20045;-79
2024/03/17 05:45:54;;;;;;;0.20;0.10;;;;;;;;;;5010127;28;20040;-80
2024/03/17 05:48:20;;;;;;;0.20;0.10;;;;;;;;;;5012580;28;20045;-80
2024/03/17 05:50:46;;;;;;;0.20;0.10;;;;;;;;;;5013179;28;20040;-80
2024/03/17 05:53:12;;;;;;;0.20;0.05;;;;;;;;;;5021875;28;20040;-80
2024/03/17 05:55:40;;;;;;;0.20;0.03;;;;;;;;;;5026502;28;20522;-79
2024/03/17 05:58:08;;;;;;;0.20;0.10;;;;;;;;;;5007915;28;20072;-80
2024/03/17 06:00:35;;;;;;;0.20;0.10;;;;;;;;;;5013099;28;20036;-79
2024/03/17 06:03:01;;;;;;;0.35;0.35;;;;;;;;;;5011104;28;20044;-80
2024/03/17 06:05:28;;;;;;;0.20;0.00;;;;;;;;;;5009470;28;20041;-80
2024/03/17 06:07:54;;;;;;;0.20;0.00;;;;;;;;;;5012314;28;20037;-80
2024/03/17 06:10:24;;;;;;;0.20;0.03;;;;;;;;;;5014846;28;20033;-80
2024/03/17 06:12:50;;;;;;;0.20;0.00;;;;;;;;;;5008509;28;20561;-81
2024/03/17 06:15:16;;;;;;;0.20;0.08;;;;;;;;;;5013837;28;20069;-80
2024/03/17 06:17:42;;;;;;;0.20;0.10;;;;;;;;;;5022034;28;20040;-81
2024/03/17 06:20:13;;;;;;;0.20;0.15;;;;;;;;;;5011951;28;20048;-80
2024/03/17 06:22:39;;;;;;;0.20;0.10;;;;;;;;;;5028809;28;20045;-79
2024/03/17 06:25:06;;;;;;;0.20;0.10;;;;;;;;;;5024257;28;20041;-79
2024/03/17 06:27:34;;;;;;;0.20;0.10;;;;;;;;;;5022952;28;20124;-79
2024/03/17 06:30:03;;;;;;;0.20;0.10;;;;;;;;;;5017524;28;20056;-79
2024/03/17 06:32:33;;;;;;;0.20;0.10;;;;;;;;;;5025563;28;20714;-79
2024/03/17 06:35:02;;;;;;;0.20;0.10;;;;;;;;;;5013155;28;20064;-80
2024/03/17 06:37:28;;;;;;;0.20;0.20;;;;;;;;;;5036298;28;20041;-79
2024/03/17 06:39:54;;;;;;;0.20;0.08;;;;;;;;;;5017912;28;20044;-79
2024/03/17 06:42:22;;;;;;;0.20;0.10;;;;;;;;;;5024822;28;20046;-79
2024/03/17 06:44:48;;;;;;;0.30;0.20;;;;;;;;;;5042415;28;20132;-80
2024/03/17 06:47:14;;;;;;;0.20;0.10;;;;;;;;;;5027905;28;20120;-79
2024/03/17 06:49:40;;;;;;;0.20;0.10;;;;;;;;;;5019063;28;20040;-80
2024/03/17 06:52:06;;;;;;;0.20;0.10;;;;;;;;;;5026801;28;20038;-79
2024/03/17 06:54:33;;;;;;;0.20;0.00;;;;;;;;;;5028217;28;20159;-79
2024/03/17 06:56:59;;;;;;;0.20;0.10;;;;;;;;;;5013787;28;20048;-79
2024/03/17 06:59:25;;;;;;;0.20;0.10;;;;;;;;;;5021614;28;20048;-79
2024/03/17 07:01:51;;;;;;;0.20;0.10;;;;;;;;;;5024375;28;20040;-79
2024/03/17 07:04:17;;;;;;;0.20;0.00;;;;;;;;;;5007655;28;20407;-79
2024/03/17 07:06:43;;;;;;;0.20;0.10;;;;;;;;;;5005167;28;20116;-79
2024/03/17 07:09:10;;;;;;;0.20;0.13;;;;;;;;;;5021670;28;20705;-79
2024/03/17 07:11:36;;;;;;;0.20;0.00;;;;;;;;;;5011448;28;20391;-79
2024/03/17 07:14:02;;;;;;;0.30;0.30;;;;;;;;;;5013403;28;20029;-79
2024/03/17 07:16:31;;;;;;;0.20;0.10;;;;;;;;;;5033868;28;20052;-78
2024/03/17 07:18:59;;;;;;;0.20;0.05;;;;;;;;;;5018220;28;20032;-79
2024/03/17 07:21:25;;;;;;;0.20;0.10;;;;;;;;;;5053848;28;20049;-79
2024/03/17 07:23:51;;;;;;;0.20;0.00;;;;;;;;;;5038109;28;20119;-79
2024/03/17 07:26:17;;;;;;;0.20;0.10;;;;;;;;;;5024338;28;20036;-79
2024/03/17 07:28:44;;;;;;;0.20;0.08;;;;;;;;;;5051511;28;20041;-79
2024/03/17 07:31:11;;;;;;;0.20;0.10;;;;;;;;;;5036297;28;20132;-79
2024/03/17 07:33:37;;;;;;;0.20;0.10;;;;;;;;;;5041969;28;20040;-79
2024/03/17 07:36:05;;;;;;;0.20;0.10;;;;;;;;;;5025743;28;20042;-79
2024/03/17 07:38:31;;;;;;;0.20;0.10;;;;;;;;;;5021221;28;20033;-79
2024/03/17 07:40:58;;;;;;;0.20;0.10;;;;;;;;;;5041556;28;20064;-79
2024/03/17 07:43:28;;;;;;;0.20;0.00;;;;;;;;;;5032470;28;20045;-79
2024/03/17 07:46:13;;;;;;;0.20;0.10;;;;;;;;;;5017004;28;20036;-79
2024/03/17 07:48:40;;;;;;;0.20;0.10;;;;;;;;;;5045650;28;20632;-79
2024/03/17 07:51:09;;;;;;;0.20;0.10;;;;;;;;;;5031976;28;20051;-79
2024/03/17 07:53:39;;;;;;;0.20;0.00;;;;;;;;;;5007855;28;20054;-79
2024/03/17 07:56:12;;;;;;;0.20;0.10;;;;;;;;;;5033748;28;20032;-79
2024/03/17 07:58:40;;;;;;;0.20;0.00;;;;;;;;;;5039008;28;20072;-79
2024/03/17 08:01:07;;;;;;;0.20;0.00;;;;;;;;;;5044965;28;20037;-79
2024/03/17 08:03:34;;;;;;;0.20;0.10;;;;;;;;;;5023307;28;20574;-79
2024/03/17 08:06:01;;;;;;;0.20;0.05;;;;;;;;;;5023867;28;20082;-79
2024/03/17 08:08:27;;;;;;;0.20;0.10;;;;;;;;;;5056197;28;20120;-79
2024/03/17 08:10:53;;;;;;;0.20;0.00;;;;;;;;;;5038385;28;20037;-79
2024/03/17 08:13:20;;;;;;;0.20;0.10;;;;;;;;;;5061874;28;20383;-79
2024/03/17 08:15:47;;;;;;;0.20;0.10;;;;;;;;;;5044464;28;20037;-79
2024/03/17 08:18:13;;;;;;;0.20;0.00;;;;;;;;;;5046608;28;20041;-80
2024/03/17 08:20:39;;;;;;;0.20;0.10;;;;;;;;;;5036229;28;20036;-79
2024/03/17 08:23:06;;;;;;;0.20;0.08;;;;;;;;;;5021737;28;20052;-80
2024/03/17 08:25:33;;;;;;;0.20;0.10;;;;;;;;;;5037205;28;20476;-80
2024/03/17 08:27:59;;;;;;;0.20;0.00;;;;;;;;;;5020367;28;20070;-79
2024/03/17 08:30:25;;;;;;;0.20;0.10;;;;;;;;;;5018917;28;20068;-79
2024/03/17 08:32:51;;;;;;;0.20;0.00;;;;;;;;;;5019744;28;20038;-79
2024/03/17 08:35:17;;;;;;;0.20;0.17;;;;;;;;;;5014241;28;20497;-79
2024/03/17 08:37:44;;;;;;;0.20;0.00;;;;;;;;;;5033044;28;20064;-80
2024/03/17 08:40:11;;;;;;;0.20;0.03;;;;;;;;;;5016290;28;20036;-80
2024/03/17 08:42:37;;;;;;;0.20;0.10;;;;;;;;;;5033921;28;20045;-79
2024/03/17 08:45:04;;;;;;;0.20;0.00;;;;;;;;;;5028942;28;20048;-79
2024/03/17 08:47:30;;;;;;;0.20;0.03;;;;;;;;;;5039539;28;20045;-79
2024/03/17 08:49:57;;;;;;;0.20;0.17;;;;;;;;;;5054604;28;20037;-80
2024/03/17 08:52:24;;;;;;;2.90;0.25;;;;;;;;;;5024708;28;20048;-80
2024/03/17 08:54:52;;;;;;;0.20;0.10;;;;;;;;;;5053458;28;20037;-80
2024/03/17 08:57:18;;;;;;;0.20;0.10;;;;;;;;;;5025764;28;20037;-80
2024/03/17 08:59:48;;;;;;;0.20;0.10;;;;;;;;;;5059154;28;20033;-80
2024/03/17 09:02:16;;;;;;;0.20;0.00;;;;;;;;;;5034038;28;20175;-79
2024/03/17 09:04:42;;;;;;;0.20;0.10;;;;;;;;;;5057621;28;20037;-80
2024/03/17 09:07:08;;;;;;;0.32;0.32;;;;;;;;;;5034203;28;20108;-80
2024/03/17 09:09:35;;;;;;;0.20;0.00;;;;;;;;;;5030188;28;20534;-80
2024/03/17 09:12:01;;;;;;;0.20;0.20;;;;;;;;;;5053527;28;20044;-79
2024/03/17 09:14:27;;;;;;;0.20;0.00;;;;;;;;;;5027156;28;20504;-79
2024/03/17 09:16:53;;;;;;;0.30;0.20;;;;;;;;;;5028934;28;20051;-79
2024/03/17 09:19:19;;;;;;;0.30;0.10;;;;;;;;;;5048503;28;20040;-80
2024/03/17 09:21:45;;;;;;;0.20;0.20;;;;;;;;;;5031042;28;20040;-80
2024/03/17 09:24:11;;;;;;;0.20;0.10;;;;;;;;;;5028288;28;20041;-79
2024/03/17 09:26:39;;;;;;;0.20;0.00;;;;;;;;;;5014246;28;20051;-79
2024/03/17 09:29:05;;;;;;;0.20;0.10;;;;;;;;;;5026397;28;20466;-79
2024/03/17 09:31:34;;;;;;;0.20;0.10;;;;;;;;;;5023545;28;20041;-80
2024/03/17 09:34:01;;;;;;;0.20;0.00;;;;;;;;;;5012193;28;20037;-80
2024/03/17 09:36:27;;;;;;;0.20;0.20;;;;;;;;;;5045808;28;20048;-80
2024/03/17 09:38:53;;;;;;;0.85;0.85;;;;;;;;;;5046039;28;20298;-79
2024/03/17 09:41:24;;;;;;;0.20;0.10;;;;;;;;;;5041511;28;20032;-79
2024/03/17 09:43:51;;;;;;;0.20;0.10;;;;;;;;;;5024675;28;20052;-79
2024/03/17 09:46:17;;;;;;;0.40;0.30;;;;;;;;;;5007620;28;20061;-79
2024/03/17 09:48:44;;;;;;;0.20;0.10;;;;;;;;;;5015181;28;20040;-80
2024/03/17 09:51:17;;;;;;;0.50;0.25;;;;;;;;;;5028423;28;20184;-80
2024/03/17 09:53:43;;;;;;;0.45;0.25;;;;;;;;;;5022485;28;20040;-79
2024/03/17 09:56:11;;;;;;;0.20;0.00;;;;;;;;;;5023587;28;20741;-79
2024/03/17 09:58:37;;;;;;;0.20;0.10;;;;;;;;;;5042993;28;20506;-79
2024/03/17 10:01:03;;;;;;;0.20;0.00;;;;;;;;;;5042933;28;20037;-79
2024/03/17 10:03:52;;;;;;;0.20;0.20;;;;;;;;;;5025393;28;20040;-80
2024/03/17 10:06:19;;;;;;;0.20;0.10;;;;;;;;;;5027398;28;20037;-78
2024/03/17 10:08:46;;;;;;;1.40;0.35;;;;;;;;;;5024675;28;20056;-75
2024/03/17 10:11:13;;;;;;;0.20;0.10;;;;;;;;;;5042569;28;20083;-78
2024/03/17 10:13:39;;;;;;;0.20;0.10;;;;;;;;;;5041664;28;20041;-77
2024/03/17 10:16:05;;;;;;;0.28;0.20;;;;;;;;;;5026369;28;20051;-75
2024/03/17 10:18:32;;;;;;;0.20;0.10;;;;;;;;;;5015425;28;20112;-76
2024/03/17 10:20:59;;;;;;;0.38;0.38;;;;;;;;;;5051737;28;20048;-78
2024/03/17 10:23:25;;;;;;;0.20;0.10;;;;;;;;;;5052910;28;20062;-77
2024/03/17 10:25:51;;;;;;;0.20;0.05;;;;;;;;;;5057509;28;20037;-78
2024/03/17 10:28:20;;;;;;;0.20;0.00;;;;;;;;;;5054476;28;20037;-77
2024/03/17 10:30:59;;;;;;;0.25;0.20;;;;;;;;;;5041979;28;20044;-77
2024/03/17 10:33:26;;;;;;;0.20;0.10;;;;;;;;;;5049981;28;20493;-77
2024/03/17 10:35:58;;;;;;;0.28;0.20;;;;;;;;;;5048151;28;20037;-78
2024/03/17 10:38:24;;;;;;;;;;;;;;;;;;5050589;28;20058;-77
2024/03/17 10:40:50;;;;;;;0.20;0.05;;;;;;;;;;5050684;28;19946;-78
2024/03/17 10:43:16;;;;;;;0.30;0.20;;;;;;;;;;5057318;28;20095;-77
2024/03/17 10:45:43;;;;;;;0.50;0.20;;;;;;;;;;5048795;28;20069;-78
2024/03/17 10:48:09;;;;;;;0.20;0.10;;;;;;;;;;5050494;28;20056;-77
2024/03/17 10:50:39;;;;;;;1.15;0.40;;;;;;;;;;5048239;28;20041;-77
2024/03/17 10:53:09;;;;;;;0.20;0.10;;;;;;;;;;5021584;28;20033;-78
2024/03/17 10:55:42;;;;;;;0.30;0.20;;;;;;;;;;5057307;28;21987;-78
2024/03/17 10:58:14;;;;;;;0.20;0.10;;;;;;;;;;5060462;28;20223;-79
2024/03/17 11:00:42;;;;;;;0.28;0.15;;;;;;;;;;5030972;28;20059;-77
2024/03/17 11:03:11;;;;;;;0.20;0.10;;;;;;;;;;5061335;28;20112;-78
2024/03/17 11:05:37;;;;;;;0.22;0.22;;;;;;;;;;5059941;28;20047;-77
2024/03/17 11:08:03;;;;;;;0.20;0.10;;;;;;;;;;5064000;28;20326;-78
2024/03/17 11:10:34;;;;;;;0.20;0.17;;;;;;;;;;5064346;28;20033;-78
2024/03/17 11:13:01;;;;;;;0.20;0.20;;;;;;;;;;5055430;28;20037;-78
2024/03/17 11:15:45;;;;;;;0.20;0.10;;;;;;;;;;5030468;28;20049;-78
2024/03/17 11:18:11;;;;;;;0.20;0.00;;;;;;;;;;5063002;28;20072;-78
2024/03/17 11:20:41;;;;;;;0.20;0.00;;;;;;;;;;5058393;28;21663;-78
2024/03/17 11:23:07;;;;;;;0.40;0.20;;;;;;;;;;5055298;28;20068;-78
2024/03/17 11:25:36;;;;;;;0.20;0.10;;;;;;;;;;5052006;28;20044;-77
2024/03/17 11:28:05;;;;;;;0.25;0.05;;;;;;;;;;5039736;28;20045;-78
2024/03/17 11:30:43;;;;;;;0.47;0.47;;;;;;;;;;5038660;28;20044;-79
2024/03/17 11:33:28;;;;;;;0.20;0.10;;;;;;;;;;5048929;23;20129;-79
2024/03/17 11:36:13;;;;;;;0.20;0.10;;;;;;;;;;5004169;28;20053;-79
2024/03/17 11:38:52;;;;;;;0.20;0.20;;;;;;;;;;5001721;28;20641;-79
2024/03/17 11:41:34;;;;;;;0.20;0.10;;;;;;;;;;4993154;28;20124;-80
2024/03/17 11:44:18;;;;;;;0.20;0.00;;;;;;;;;;5003622;28;20054;-80
2024/03/17 11:46:55;;;;;;;0.35;0.35;;;;;;;;;;4980366;28;20045;-79
2024/03/17 11:49:28;;;;;;;0.20;0.08;;;;;;;;;;4981490;28;20243;-79
2024/03/17 11:51:55;;;;;;;0.20;0.08;;;;;;;;;;4990426;28;20033;-80
2024/03/17 11:54:22;;;;;;;0.20;0.10;;;;;;;;;;5001305;28;20450;-78
2024/03/17 11:56:49;;;;;;;0.20;0.10;;;;;;;;;;4983948;28;20368;-82
2024/03/17 11:59:17;;;;;;;0.20;0.03;;;;;;;;;;4998745;28;20038;-79
2024/03/17 12:01:44;;;;;;;1.20;0.25;;;;;;;;;;4999224;28;20443;-77
2024/03/17 12:04:10;;;;;;;0.43;0.25;;;;;;;;;;5002197;28;20053;-78
2024/03/17 12:06:36;;;;;;;0.20;0.10;;;;;;;;;;4984161;28;20041;-77
2024/03/17 12:09:20;;;;;;;0.20;0.10;;;;;;;;;;5019458;28;20418;-77
2024/03/17 12:11:46;;;;;;;0.20;0.00;;;;;;;;;;4983848;28;20092;-79
2024/03/17 12:14:19;;;;;;;0.20;0.10;;;;;;;;;;4998692;28;20105;-78
2024/03/17 12:16:49;;;;;;;0.20;0.10;;;;;;;;;;4997881;28;20076;-77
2024/03/17 12:19:19;;;;;;;0.20;0.15;;;;;;;;;;5004430;28;20089;-79
2024/03/17 12:21:45;;;;;;;0.20;0.10;;;;;;;;;;4979096;28;20674;-80
2024/03/17 12:24:19;;;;;;;0.60;0.38;;;;;;;;;;4985675;28;20049;-79
2024/03/17 12:26:45;;;;;;;0.65;0.50;;;;;;;;;;4991100;28;20042;-80
2024/03/17 12:29:41;;;;;;;0.20;0.10;;;;;;;;;;4989395;28;20120;-76
2024/03/17 12:32:23;;;;;;;0.35;0.25;;;;;;;;;;5002292;28;20542;-77
2024/03/17 12:34:53;;;;;;;0.20;0.13;;;;;;;;;;5004421;28;20030;-78
2024/03/17 12:37:19;;;;;;;0.20;0.10;;;;;;;;;;4989524;28;20630;-76
2024/03/17 12:39:46;;;;;;;0.20;0.10;;;;;;;;;;5006724;28;20034;-77
2024/03/17 12:42:13;;;;;;;0.20;0.10;;;;;;;;;;4992501;28;20050;-77
2024/03/17 12:44:41;;;;;;;0.20;0.10;;;;;;;;;;5004809;28;20068;-80
2024/03/17 12:47:10;;;;;;;0.47;0.30;;;;;;;;;;5002278;28;20038;-76
2024/03/17 12:49:36;;;;;;;0.20;0.10;;;;;;;;;;5006975;28;20037;-76
2024/03/17 12:52:02;;;;;;;0.45;0.45;;;;;;;;;;4990190;28;20576;-78
2024/03/17 12:54:30;;;;;;;0.20;0.10;;;;;;;;;;4973843;28;20454;-79
2024/03/17 13:02:41;;;;;;;0.20;0.08;;;;;;;;;;5003856;28;20050;-76
2024/03/17 13:05:07;;;;;;;0.30;0.30;;;;;;;;;;5004065;28;20506;-78
2024/03/17 13:07:34;;;;;;;2.38;0.20;;;;;;;;;;4988392;28;20212;-78
2024/03/17 13:10:00;;;;;;;0.20;0.15;;;;;;;;;;5004736;28;20509;-77
2024/03/17 13:12:27;;;;;;;0.20;0.00;;;;;;;;;;5004947;28;20038;-79
2024/03/17 13:14:53;;;;;;;0.20;0.10;;;;;;;;;;5001672;28;20042;-79
2024/03/17 13:17:19;;;;;;;0.20;0.17;;;;;;;;;;5003800;28;20537;-79
2024/03/17 13:19:48;;;;;;;0.30;0.30;;;;;;;;;;4986889;28;20034;-77
2024/03/17 13:22:14;;;;;;;0.20;0.10;;;;;;;;;;5004268;28;20041;-81
2024/03/17 13:24:40;;;;;;;0.28;0.25;;;;;;;;;;4998773;28;20080;-81
2024/03/17 13:27:07;;;;;;;0.30;0.30;;;;;;;;;;4986715;28;20628;-83
2024/03/17 13:29:35;;;;;;;0.20;0.10;;;;;;;;;;4986503;28;20048;-81
2024/03/17 13:32:02;;;;;;;0.20;0.00;;;;;;;;;;5003079;28;20163;-81
2024/03/17 13:34:28;;;;;;;0.20;0.10;;;;;;;;;;5007478;28;20034;-83
2024/03/17 13:36:54;;;;;;;0.20;0.00;;;;;;;;;;4985866;28;20038;-80
2024/03/17 13:39:21;;;;;;;0.20;0.10;;;;;;;;;;4990978;28;20217;-79
2024/03/17 13:41:49;;;;;;;0.40;0.30;;;;;;;;;;5004542;28;20041;-81
2024/03/17 13:44:15;;;;;;;0.20;0.10;;;;;;;;;;5020367;28;20038;-75
2024/03/17 13:46:41;;;;;;;0.20;0.10;;;;;;;;;;4978429;28;20162;-81
2024/03/17 13:49:10;;;;;;;0.30;0.13;;;;;;;;;;4997821;28;20393;-77
2024/03/17 13:51:37;;;;;;;0.20;0.10;;;;;;;;;;4988602;28;20137;-78
2024/03/17 13:54:03;;;;;;;0.20;0.10;;;;;;;;;;4987422;28;20044;-79
2024/03/17 13:56:29;;;;;;;0.20;0.10;;;;;;;;;;4990610;28;20042;-77
2024/03/17 13:58:55;;;;;;;0.20;0.00;;;;;;;;;;5006531;28;20384;-78
2024/03/17 14:01:21;;;;;;;0.20;0.10;;;;;;;;;;4988701;28;20048;-78
2024/03/17 14:03:47;;;;;;;0.20;0.10;;;;;;;;;;4990521;28;20027;-79
2024/03/17 14:06:13;;;;;;;0.32;0.30;;;;;;;;;;5003880;28;20099;-78
2024/03/17 14:08:39;;;;;;;0.40;0.35;;;;;;;;;;5004768;28;20058;-78
2024/03/17 14:11:05;;;;;;;0.20;0.10;;;;;;;;;;4982655;28;20095;-79
2024/03/17 14:13:31;;;;;;;0.20;0.00;;;;;;;;;;5004955;28;20422;-78
2024/03/17 14:15:58;;;;;;;0.30;0.28;;;;;;;;;;5003104;28;20049;-78
2024/03/17 14:18:24;;;;;;;0.45;0.43;;;;;;;;;;5005652;28;20077;-79
2024/03/17 14:20:50;;;;;;;0.20;0.10;;;;;;;;;;4987330;28;20034;-78
2024/03/17 14:23:17;;;;;;;0.20;0.10;;;;;;;;;;4990513;28;20067;-78
2024/03/17 14:25:43;;;;;;;0.20;0.17;;;;;;;;;;5006922;28;20046;-78
2024/03/17 14:28:09;;;;;;;0.20;0.20;;;;;;;;;;5009398;28;20083;-79
2024/03/17 14:30:35;;;;;;;0.20;0.10;;;;;;;;;;4991070;28;20545;-79
2024/03/17 14:33:04;;;;;;;0.20;0.10;;;;;;;;;;5009939;28;20042;-79
2024/03/17 14:35:30;;;;;;;0.20;0.10;;;;;;;;;;4989656;28;20080;-79
2024/03/17 14:37:58;;;;;;;0.65;0.35;;;;;;;;;;4991289;28;20037;-80
2024/03/17 14:40:24;;;;;;;0.20;0.00;;;;;;;;;;4994258;28;20461;-80
2024/03/17 14:42:51;;;;;;;0.20;0.10;;;;;;;;;;4992844;28;20037;-78
2024/03/17 14:45:18;;;;;;;0.20;0.20;;;;;;;;;;4982539;28;20042;-78
2024/03/17 14:47:44;;;;;;;0.20;0.05;;;;;;;;;;5013920;28;20509;-78
2024/03/17 14:50:14;;;;;;;0.20;0.10;;;;;;;;;;5022466;28;20050;-80
2024/03/17 14:52:41;;;;;;;0.20;0.10;;;;;;;;;;5007912;28;20038;-79
2024/03/17 14:55:09;;;;;;;0.20;0.10;;;;;;;;;;5008040;28;20528;-79